Tranquility, New Jersey
Current Conditions -  °F | °C
As of 9:53 PM on Tuesday 21 Oct 2014 (Local Time) from KFWN Reporting Station
Broken Clouds Broken Clouds  
Wind Chill: 54°   Ceiling: 1800
Heat Index: 54°   Visibility: 10mi
Dew Point: 49°   Wind: 8mph
Humidity: 83%   Direction: 30°NNE
Pressure: 29.93"   Gusts: NA
Location:  40.96°N, 74.81°W
Report Text: KFWN 220153Z AUTO 03007KT 10SM FEW010 BKN018 12/09 A2993 RMK AO2 SLP135 T01220094
Loading
Personal Weather Stations






























Interactive Weather Map
Tropical Storm Tracking
New forecast layout! Learn more

10-Day Weather Forecast

Advertisements
Track Severe Weather on mobile